Boeing Field King County International Airport Seattle US
ICAO: KBFI
IATA: BFI
Category: Large
Scheduled Services: Yes

Elevation: 21 ft
TransAlt. 18000 ft.

Airport Communications:
SEATTLE APP/DEP:119.2
ATIS:127.75
CLNC DEL:132.4
GND:121.9
SEATTLE RDO:122.5
TWR: 31R
TWR: 31L
UNICOM:122.95

KBFI Zoom In..

If you have problems with the map follow the link
https://www.worldairports.se/pages/airport.php?
ICAO=KBFI

Runways:

(A) RW 13L length 3710 ft width 100 ft
---- / hdg 130

(B) RW 13R length 10000 ft width 200 ft
ILS 110.90 / hdg 130

(C) RW 31L length 10000 ft width 200 ft
ILS 110.90 / hdg 310

(D) RW 31R length 3710 ft width 100 ft
---- / hdg 310

Location; KBFI
Day. 18 / Time. 12.53 Zulu
* Altimeter: 30.05
* Temperature: 04° c. 39.2°f.
* Wind from: 160° Speed 06 kn.
Dewpoint: 02° c.
Visibility: 6 Statute Miles.
Clouds: Overcast 2900 ft.
Conditions: Light Rain.Conditions: Mist.

KBFI 181253Z 16006KT 6SM -RA BR OVC029 04/02 A3005 RMK AO2 SLP174 P0009 T00440022


Wind From 160°
Speed 06 kn.

 
 
jpsmedia worldairports.se 2020   terms of use